createdAt,value
2022-11-08T00:00:44.765Z,100.00
2022-11-08T00:03:12.076Z,100.00
2022-11-08T00:05:57.677Z,100.00
2022-11-08T00:08:43.797Z,100.00
2022-11-08T00:11:29.005Z,100.00
2022-11-08T00:13:59.830Z,100.00
2022-11-08T00:16:27.917Z,100.00
2022-11-08T00:18:55.280Z,100.00
2022-11-08T00:21:24.558Z,100.00
2022-11-08T00:23:52.307Z,100.00
2022-11-08T00:26:20.062Z,100.00
2022-11-08T00:28:46.712Z,100.00
2022-11-08T00:31:13.878Z,100.00
2022-11-08T00:33:42.111Z,100.00
2022-11-08T00:36:10.098Z,100.00
2022-11-08T00:38:43.333Z,100.00
2022-11-08T00:41:12.876Z,100.00
2022-11-08T00:43:39.698Z,100.00
2022-11-08T00:46:07.175Z,100.00
2022-11-08T00:48:34.050Z,100.00
2022-11-08T00:51:05.446Z,100.00
2022-11-08T00:53:32.851Z,100.00
2022-11-08T00:56:07.901Z,100.00
2022-11-08T00:58:34.739Z,100.00
2022-11-08T01:01:08.205Z,100.00
2022-11-08T01:03:35.696Z,100.00
2022-11-08T01:06:06.506Z,100.00
2022-11-08T01:08:34.237Z,100.00
2022-11-08T01:11:08.002Z,100.00
2022-11-08T01:13:35.826Z,100.00
2022-11-08T01:16:23.091Z,100.00
2022-11-08T01:18:51.658Z,100.00
2022-11-08T01:21:19.417Z,100.00
2022-11-08T01:23:47.395Z,100.00
2022-11-08T01:26:16.947Z,100.00
2022-11-08T01:28:44.405Z,100.00
2022-11-08T01:31:20.373Z,100.00
2022-11-08T01:33:51.576Z,100.00
2022-11-08T01:36:22.487Z,100.00
2022-11-08T01:38:50.756Z,100.00
2022-11-08T01:41:19.792Z,100.00
2022-11-08T01:43:57.946Z,100.00
2022-11-08T01:46:51.608Z,100.00
2022-11-08T01:49:43.967Z,100.00
2022-11-08T01:52:18.747Z,100.00
2022-11-08T01:55:02.770Z,100.00
2022-11-08T01:57:39.141Z,100.00
2022-11-08T02:00:10.459Z,100.00
2022-11-08T02:02:37.910Z,100.00
2022-11-08T02:05:07.274Z,100.00
2022-11-08T02:07:34.891Z,100.00
2022-11-08T02:10:03.297Z,100.00
2022-11-08T02:12:30.886Z,100.00
2022-11-08T02:14:59.651Z,100.00
2022-11-08T02:17:26.529Z,100.00
2022-11-08T02:19:53.652Z,100.00
2022-11-08T02:22:34.707Z,100.00
2022-11-08T02:25:02.792Z,100.00
2022-11-08T02:27:30.228Z,100.00
2022-11-08T02:29:57.826Z,100.00
2022-11-08T02:32:24.756Z,100.00
2022-11-08T02:34:56.344Z,100.00
2022-11-08T02:37:24.282Z,100.00
2022-11-08T02:39:51.947Z,100.00
2022-11-08T02:42:20.767Z,100.00
2022-11-08T02:44:48.258Z,100.00
2022-11-08T02:47:15.907Z,100.00
2022-11-08T02:49:42.891Z,100.00
2022-11-08T02:52:11.111Z,100.00
2022-11-08T02:54:38.642Z,100.00
2022-11-08T02:57:06.213Z,100.00
2022-11-08T02:59:32.979Z,100.00
2022-11-08T03:02:00.745Z,100.00
2022-11-08T03:04:28.553Z,100.00
2022-11-08T03:06:55.778Z,100.00
2022-11-08T03:09:23.007Z,100.00
2022-11-08T03:11:50.838Z,100.00
2022-11-08T03:14:18.365Z,100.00
2022-11-08T03:16:45.442Z,100.00
2022-11-08T03:19:13.182Z,100.00
2022-11-08T03:21:40.328Z,100.00
2022-11-08T03:24:08.181Z,100.00
2022-11-08T03:26:35.401Z,100.00
2022-11-08T03:29:02.314Z,100.00
2022-11-08T03:31:30.030Z,100.00
2022-11-08T03:33:56.886Z,100.00
2022-11-08T03:36:24.606Z,100.00
2022-11-08T03:38:54.138Z,100.00
2022-11-08T03:41:21.812Z,100.00
2022-11-08T03:43:49.542Z,100.00
2022-11-08T03:46:16.424Z,100.00
2022-11-08T03:48:43.390Z,100.00
2022-11-08T03:51:12.361Z,100.00
2022-11-08T03:53:40.598Z,100.00
2022-11-08T03:56:08.638Z,100.00
2022-11-08T03:58:36.170Z,100.00
2022-11-08T04:01:07.175Z,100.00
2022-11-08T04:03:35.879Z,100.00
2022-11-08T04:06:03.948Z,100.00
2022-11-08T04:08:31.164Z,100.00
2022-11-08T04:11:19.748Z,100.00
2022-11-08T04:14:05.132Z,100.00
2022-11-08T04:16:33.028Z,100.00
2022-11-08T04:19:20.567Z,100.00
2022-11-08T04:21:49.085Z,100.00
2022-11-08T04:24:17.558Z,100.00
2022-11-08T04:26:44.526Z,100.00
2022-11-08T04:29:12.585Z,100.00
2022-11-08T04:31:41.826Z,100.00
2022-11-08T04:34:09.131Z,100.00
2022-11-08T04:36:36.601Z,100.00
2022-11-08T04:39:06.086Z,100.00
2022-11-08T04:41:33.719Z,100.00
2022-11-08T04:44:00.678Z,100.00
2022-11-08T04:46:28.962Z,100.00
2022-11-08T04:48:57.780Z,100.00
2022-11-08T04:51:30.404Z,100.00
2022-11-08T04:53:59.535Z,100.00
2022-11-08T04:56:28.994Z,100.00
2022-11-08T04:58:59.071Z,100.00
2022-11-08T05:01:30.598Z,100.00
2022-11-08T05:04:00.097Z,100.00
2022-11-08T05:06:31.077Z,100.00
2022-11-08T05:08:59.953Z,100.00
2022-11-08T05:11:29.563Z,100.00
2022-11-08T05:13:58.590Z,100.00
2022-11-08T05:16:31.280Z,100.00
2022-11-08T05:18:59.735Z,100.00
2022-11-08T05:21:45.807Z,100.00
2022-11-08T05:24:16.718Z,100.00
2022-11-08T05:26:47.508Z,100.00
2022-11-08T05:29:16.530Z,100.00
2022-11-08T05:31:43.385Z,100.00
2022-11-08T05:34:10.708Z,100.00
2022-11-08T05:36:37.996Z,100.00
2022-11-08T05:39:06.073Z,100.00
2022-11-08T05:41:34.445Z,100.00
2022-11-08T05:44:01.416Z,100.00
2022-11-08T05:46:29.098Z,100.00
2022-11-08T05:48:56.569Z,100.00
2022-11-08T05:51:23.614Z,100.00
2022-11-08T05:53:53.276Z,100.00
2022-11-08T05:56:20.862Z,100.00
2022-11-08T05:58:48.238Z,100.00
2022-11-08T06:01:17.779Z,100.00
2022-11-08T06:03:45.091Z,100.00
2022-11-08T06:06:14.463Z,100.00
2022-11-08T06:08:49.065Z,100.00
2022-11-08T06:11:23.704Z,100.00
2022-11-08T06:13:53.140Z,100.00
2022-11-08T06:16:22.877Z,100.00
2022-11-08T06:18:49.850Z,100.00
2022-11-08T06:21:19.084Z,100.00
2022-11-08T06:23:46.516Z,100.00
2022-11-08T06:26:15.738Z,100.00
2022-11-08T06:28:45.513Z,100.00
2022-11-08T06:31:15.556Z,100.00
2022-11-08T06:33:46.697Z,100.00
2022-11-08T06:36:17.933Z,100.00
2022-11-08T06:38:48.533Z,100.00
2022-11-08T06:41:20.398Z,100.00
2022-11-08T06:43:51.147Z,100.00
2022-11-08T06:46:19.024Z,100.00
2022-11-08T06:48:50.025Z,100.00
2022-11-08T06:51:18.818Z,100.00
2022-11-08T06:53:46.211Z,100.00
2022-11-08T06:56:14.616Z,100.00
2022-11-08T06:58:42.340Z,100.00
2022-11-08T07:01:11.235Z,100.00
2022-11-08T07:03:38.658Z,100.00
2022-11-08T07:06:07.089Z,100.00
2022-11-08T07:08:37.143Z,100.00
2022-11-08T07:11:05.254Z,100.00
2022-11-08T07:13:33.288Z,100.00
2022-11-08T07:16:01.116Z,100.00
2022-11-08T07:18:28.962Z,100.00
2022-11-08T07:21:03.491Z,100.00
2022-11-08T07:23:30.958Z,100.00
2022-11-08T07:26:02.451Z,100.00
2022-11-08T07:28:29.701Z,100.00
2022-11-08T07:31:03.535Z,100.00
2022-11-08T07:33:30.664Z,100.00
2022-11-08T07:35:58.454Z,100.00
2022-11-08T07:38:27.390Z,100.00
2022-11-08T07:41:00.876Z,100.00
2022-11-08T07:43:30.112Z,100.00
2022-11-08T07:46:00.639Z,100.00
2022-11-08T07:48:30.591Z,100.00
2022-11-08T07:50:58.009Z,100.00
2022-11-08T07:53:25.666Z,100.00
2022-11-08T07:55:53.592Z,100.00
2022-11-08T07:58:21.083Z,100.00
2022-11-08T08:00:50.249Z,100.00
2022-11-08T08:03:19.211Z,100.00
2022-11-08T08:05:55.373Z,100.00
2022-11-08T08:08:24.941Z,100.00
2022-11-08T08:10:52.365Z,100.00
2022-11-08T08:13:21.554Z,100.00
2022-11-08T08:15:48.832Z,100.00
2022-11-08T08:18:17.939Z,100.00
2022-11-08T08:20:46.945Z,100.00
2022-11-08T08:23:13.686Z,100.00
2022-11-08T08:25:40.860Z,100.00
2022-11-08T08:28:11.180Z,100.00
2022-11-08T08:30:41.418Z,100.00
2022-11-08T08:33:28.007Z,100.00
2022-11-08T08:36:02.909Z,100.00
2022-11-08T08:38:33.045Z,100.00
2022-11-08T08:41:03.864Z,100.00
2022-11-08T08:43:34.491Z,100.00
2022-11-08T08:46:04.103Z,100.00
2022-11-08T08:48:31.087Z,100.00
2022-11-08T08:51:00.918Z,100.00
2022-11-08T08:53:30.914Z,100.00
2022-11-08T08:55:59.657Z,100.00
2022-11-08T08:58:27.021Z,100.00
2022-11-08T09:03:50.922Z,99.53
2022-11-08T09:06:18.376Z,97.98
2022-11-08T09:08:47.844Z,96.88
2022-11-08T09:11:14.519Z,96.45
2022-11-08T09:13:42.992Z,95.81
2022-11-08T09:16:10.866Z,95.35
2022-11-08T09:18:37.955Z,94.32
2022-11-08T09:21:06.865Z,94.35
2022-11-08T09:23:36.218Z,93.24
2022-11-08T09:26:07.037Z,93.39
2022-11-08T09:28:37.771Z,93.19
2022-11-08T09:31:08.391Z,93.09
2022-11-08T09:33:37.544Z,92.50
2022-11-08T09:36:06.358Z,92.55
2022-11-08T09:38:34.277Z,93.01
2022-11-08T09:41:19.705Z,93.08
2022-11-08T09:44:44.846Z,93.11
2022-11-08T09:47:19.800Z,92.64
2022-11-08T09:50:23.897Z,91.82
2022-11-08T09:53:15.856Z,92.08
2022-11-08T09:56:06.699Z,92.47
2022-11-08T09:58:44.024Z,92.42
2022-11-08T10:01:14.604Z,92.28
2022-11-08T10:03:47.994Z,91.96
2022-11-08T10:06:24.634Z,92.46
2022-11-08T10:09:30.464Z,92.22
2022-11-08T10:12:43.786Z,91.37
2022-11-08T10:15:39.137Z,90.95
2022-11-08T10:18:40.782Z,91.09
2022-11-08T10:21:33.403Z,90.22
2022-11-08T10:24:10.150Z,88.87
2022-11-08T10:26:46.943Z,86.79
2022-11-08T10:29:38.229Z,86.55
2022-11-08T10:32:22.827Z,85.34
2022-11-08T10:34:55.694Z,85.84
2022-11-08T10:37:24.084Z,85.35
2022-11-08T10:39:59.053Z,84.81
2022-11-08T10:42:36.810Z,83.88
2022-11-08T10:45:03.955Z,83.42
2022-11-08T10:47:33.678Z,83.11
2022-11-08T10:50:04.015Z,82.13
2022-11-08T10:53:00.719Z,81.13
2022-11-08T10:55:31.662Z,80.54
2022-11-08T10:57:58.681Z,81.57
2022-11-08T11:00:29.171Z,80.13
2022-11-08T11:03:02.211Z,80.53
2022-11-08T11:05:38.233Z,80.07
2022-11-08T11:08:17.111Z,79.52
2022-11-08T11:10:46.932Z,79.52
2022-11-08T11:16:03.747Z,78.10
2022-11-08T11:18:46.511Z,77.70
2022-11-08T11:21:17.917Z,75.54
2022-11-08T11:23:56.444Z,76.42
2022-11-08T11:26:34.534Z,76.00
2022-11-08T11:29:30.983Z,76.12
2022-11-08T11:32:00.808Z,75.87
2022-11-08T11:34:39.634Z,76.17
2022-11-08T11:37:32.984Z,77.10
2022-11-08T11:40:11.620Z,76.64
2022-11-08T11:43:22.754Z,76.47
2022-11-08T11:46:15.909Z,76.75
2022-11-08T11:48:52.311Z,75.60
2022-11-08T11:51:20.938Z,74.86
2022-11-08T11:53:48.918Z,74.36
2022-11-08T11:57:12.652Z,73.79
2022-11-08T12:00:23.224Z,74.95
2022-11-08T12:03:36.833Z,75.04
2022-11-08T12:06:40.751Z,74.02
2022-11-08T12:09:26.539Z,75.04
2022-11-08T12:12:13.898Z,74.37
2022-11-08T12:18:42.766Z,75.02
2022-11-08T12:21:25.413Z,75.07
2022-11-08T12:24:12.149Z,75.17
2022-11-08T12:27:06.305Z,75.56
2022-11-08T12:29:42.041Z,76.64
2022-11-08T12:32:27.924Z,77.30
2022-11-08T12:35:37.157Z,77.26
2022-11-08T12:38:18.559Z,74.75
2022-11-08T12:40:59.665Z,73.82
2022-11-08T12:43:44.888Z,73.05
2022-11-08T12:46:18.667Z,71.80
2022-11-08T12:49:47.823Z,71.56
2022-11-08T12:55:30.753Z,72.71
2022-11-08T12:57:58.991Z,72.35
2022-11-08T13:00:27.903Z,71.80
2022-11-08T13:03:38.130Z,71.85
2022-11-08T13:06:30.137Z,71.91
2022-11-08T13:09:09.397Z,72.20
2022-11-08T13:12:01.734Z,72.17
2022-11-08T13:14:28.438Z,71.00
2022-11-08T13:17:25.824Z,72.13
2022-11-08T13:20:05.914Z,72.28
2022-11-08T13:22:45.087Z,72.28
2022-11-08T13:25:33.413Z,69.67
2022-11-08T13:28:00.210Z,64.73
2022-11-08T13:30:34.245Z,61.74
2022-11-08T13:33:22.533Z,60.50
2022-11-08T13:36:02.390Z,60.58
2022-11-08T13:39:18.531Z,65.70
2022-11-08T13:42:08.490Z,68.77
2022-11-08T13:44:59.897Z,69.36
2022-11-08T13:47:55.108Z,70.25
2022-11-08T13:50:49.109Z,70.16
2022-11-08T13:53:52.095Z,70.28
2022-11-08T13:56:26.443Z,69.76
2022-11-08T13:58:53.054Z,70.46
2022-11-08T14:01:46.634Z,70.21
2022-11-08T14:04:26.124Z,70.51
2022-11-08T14:07:24.773Z,70.44
2022-11-08T14:10:28.167Z,70.64
2022-11-08T14:13:43.479Z,71.56
2022-11-08T14:16:32.005Z,72.69
2022-11-08T14:19:21.107Z,72.73
2022-11-08T14:21:50.626Z,73.24
2022-11-08T14:24:21.943Z,73.74
2022-11-08T14:26:49.038Z,74.04
2022-11-08T14:29:18.238Z,73.91
2022-11-08T14:31:46.101Z,73.72
2022-11-08T14:34:31.625Z,74.02
2022-11-08T14:37:00.448Z,74.34
2022-11-08T14:39:35.174Z,74.48
2022-11-08T14:42:04.692Z,74.84
2022-11-08T14:44:32.554Z,74.48
2022-11-08T14:47:00.111Z,74.62
2022-11-08T14:49:48.257Z,75.06
2022-11-08T14:52:17.681Z,75.23
2022-11-08T14:54:46.625Z,75.06
2022-11-08T14:57:33.281Z,75.10
2022-11-08T15:00:04.204Z,75.56
2022-11-08T15:02:32.149Z,76.00
2022-11-08T15:04:59.406Z,76.37
2022-11-08T15:07:26.993Z,76.56
2022-11-08T15:09:54.179Z,75.96
2022-11-08T15:12:24.485Z,76.44
2022-11-08T15:14:55.446Z,76.08
2022-11-08T15:17:41.530Z,76.69
2022-11-08T15:20:20.320Z,76.74
2022-11-08T15:22:51.808Z,77.23
2022-11-08T15:25:34.825Z,77.03
2022-11-08T15:28:26.128Z,76.62
2022-11-08T15:30:58.279Z,77.46
2022-11-08T15:33:27.479Z,77.72
2022-11-08T15:35:54.276Z,77.23
2022-11-08T15:38:33.505Z,77.86
2022-11-08T15:41:03.935Z,77.81
2022-11-08T15:43:40.620Z,78.31
2022-11-08T15:46:26.811Z,78.77
2022-11-08T15:48:58.209Z,79.54
2022-11-08T15:51:25.541Z,80.67
2022-11-08T15:53:52.787Z,81.46
2022-11-08T15:56:19.834Z,82.18
2022-11-08T15:58:46.735Z,82.41
2022-11-08T16:01:20.687Z,82.48
2022-11-08T16:03:48.596Z,82.21
2022-11-08T16:06:15.692Z,82.34
2022-11-08T16:08:42.777Z,82.72
2022-11-08T16:11:18.538Z,83.33
2022-11-08T16:13:45.748Z,83.39
2022-11-08T16:16:14.705Z,83.17
2022-11-08T16:18:42.505Z,84.39
2022-11-08T16:21:13.459Z,84.45
2022-11-08T16:23:41.144Z,84.44
2022-11-08T16:26:14.908Z,84.93
2022-11-08T16:28:41.870Z,85.85
2022-11-08T16:31:16.513Z,85.82
2022-11-08T16:33:45.778Z,86.51
2022-11-08T16:36:28.109Z,86.58
2022-11-08T16:38:59.252Z,87.50
2022-11-08T16:41:26.507Z,87.31
2022-11-08T16:43:53.555Z,87.33
2022-11-08T16:46:21.930Z,88.36
2022-11-08T16:48:57.665Z,87.76
2022-11-08T16:51:25.609Z,88.45
2022-11-08T16:53:53.042Z,88.53
2022-11-08T16:56:20.781Z,89.00
2022-11-08T16:58:47.916Z,87.90
2022-11-08T17:01:21.079Z,87.53
2022-11-08T17:03:47.926Z,88.22
2022-11-08T17:06:18.388Z,89.50
2022-11-08T17:08:48.366Z,89.03
2022-11-08T17:11:20.901Z,89.20
2022-11-08T17:13:48.250Z,89.25
2022-11-08T17:16:15.842Z,89.45
2022-11-08T17:18:42.869Z,89.06
2022-11-08T17:21:38.237Z,89.86
2022-11-08T17:24:00.440Z,89.84
2022-11-08T17:26:28.276Z,89.48
2022-11-08T17:28:56.917Z,89.68
2022-11-08T17:31:23.959Z,90.32
2022-11-08T17:33:50.760Z,91.18
2022-11-08T17:36:17.470Z,91.30
2022-11-08T17:38:45.328Z,91.51
2022-11-08T17:41:17.273Z,91.81
2022-11-08T17:43:44.819Z,91.60
2022-11-08T17:46:12.082Z,91.66
2022-11-08T17:48:40.135Z,91.36
2022-11-08T17:51:07.564Z,91.49
2022-11-08T17:53:34.768Z,91.33
2022-11-08T17:56:04.485Z,91.89
2022-11-08T17:58:34.467Z,92.56
2022-11-08T18:01:03.890Z,91.96
2022-11-08T18:03:30.875Z,92.81
2022-11-08T18:05:57.604Z,93.34
2022-11-08T18:08:27.013Z,93.81
2022-11-08T18:10:55.793Z,93.79
2022-11-08T18:13:24.310Z,93.52
2022-11-08T18:15:50.992Z,93.39
2022-11-08T18:18:17.966Z,94.08
2022-11-08T18:20:46.068Z,94.21
2022-11-08T18:23:13.182Z,93.94
2022-11-08T18:25:40.387Z,94.67
2022-11-08T18:28:07.517Z,94.14
2022-11-08T18:30:34.447Z,95.04
2022-11-08T18:33:02.211Z,95.04
2022-11-08T18:35:28.984Z,94.99
2022-11-08T18:37:55.946Z,94.93
2022-11-08T18:40:23.137Z,95.46
2022-11-08T18:42:50.132Z,95.72
2022-11-08T18:45:16.941Z,95.91
2022-11-08T18:47:43.926Z,95.13
2022-11-08T18:50:11.079Z,95.75
2022-11-08T18:52:44.023Z,95.97
2022-11-08T18:55:15.187Z,95.51
2022-11-08T18:57:42.278Z,96.49
2022-11-08T19:00:09.779Z,95.52
2022-11-08T19:02:38.292Z,95.87
2022-11-08T19:05:06.125Z,95.81
2022-11-08T19:07:33.307Z,96.79
2022-11-08T19:10:00.115Z,96.72
2022-11-08T19:12:28.809Z,96.63
2022-11-08T19:14:56.249Z,96.17
2022-11-08T19:17:23.089Z,96.62
2022-11-08T19:19:50.745Z,96.42
2022-11-08T19:22:17.486Z,97.17
2022-11-08T19:24:44.328Z,97.23
2022-11-08T19:27:11.187Z,96.79
2022-11-08T19:29:38.632Z,96.34
2022-11-08T19:32:05.649Z,97.44
2022-11-08T19:34:33.790Z,97.72
2022-11-08T19:37:01.321Z,96.41
2022-11-08T19:39:28.527Z,98.18
2022-11-08T19:41:55.924Z,97.38
2022-11-08T19:44:22.807Z,96.86
2022-11-08T19:46:49.641Z,96.95
2022-11-08T19:49:17.070Z,97.17
2022-11-08T19:51:43.791Z,96.79
2022-11-08T19:54:12.871Z,97.33
2022-11-08T19:59:26.601Z,97.73
2022-11-08T20:01:53.473Z,97.44
2022-11-08T20:04:22.402Z,97.27
2022-11-08T20:06:49.459Z,97.68
2022-11-08T20:09:16.498Z,98.99
2022-11-08T20:11:43.327Z,98.94
2022-11-08T20:14:12.713Z,98.66
2022-11-08T20:16:42.301Z,99.51
2022-11-08T20:19:14.233Z,99.42
2022-11-08T20:21:42.690Z,100.00
2022-11-08T20:24:11.190Z,100.00
2022-11-08T20:26:39.068Z,99.85
2022-11-08T20:29:07.447Z,99.69
2022-11-08T20:31:35.144Z,99.55
2022-11-08T20:34:02.045Z,98.69
2022-11-08T20:36:34.594Z,97.51
2022-11-08T20:39:06.517Z,97.77
2022-11-08T20:41:35.064Z,98.00
2022-11-08T20:44:01.893Z,98.43
2022-11-08T20:46:29.892Z,99.00
2022-11-08T20:49:00.169Z,99.50
2022-11-08T20:51:28.059Z,99.55
2022-11-08T20:53:55.882Z,99.51
2022-11-08T20:56:23.701Z,98.83
2022-11-08T20:58:51.824Z,99.37
2022-11-08T21:01:20.708Z,99.10
2022-11-08T21:03:49.154Z,99.33
2022-11-08T21:06:18.465Z,98.92
2022-11-08T21:09:08.326Z,99.62
2022-11-08T21:11:34.876Z,99.74
2022-11-08T21:14:03.073Z,100.00
2022-11-08T21:16:38.184Z,99.74
2022-11-08T21:19:09.845Z,99.49
2022-11-08T21:21:36.940Z,99.68
2022-11-08T21:24:04.079Z,99.43
2022-11-08T21:26:36.703Z,100.00
2022-11-08T21:29:05.725Z,100.00
2022-11-08T21:31:33.365Z,100.00
2022-11-08T21:34:00.365Z,100.00
2022-11-08T21:36:29.504Z,100.00
2022-11-08T21:38:56.361Z,100.00
2022-11-08T21:41:23.523Z,100.00
2022-11-08T21:43:50.339Z,100.00
2022-11-08T21:46:23.506Z,100.00
2022-11-08T21:48:58.902Z,100.00
2022-11-08T21:51:26.879Z,100.00
2022-11-08T21:53:55.760Z,99.76
2022-11-08T21:56:30.302Z,100.00
2022-11-08T21:58:57.373Z,100.00
2022-11-08T22:01:29.712Z,100.00
2022-11-08T22:03:57.919Z,100.00
2022-11-08T22:06:24.593Z,100.00
2022-11-08T22:08:51.801Z,100.00
2022-11-08T22:11:19.335Z,100.00
2022-11-08T22:13:46.583Z,100.00
2022-11-08T22:16:13.917Z,100.00
2022-11-08T22:21:40.512Z,99.79
2022-11-08T22:24:18.601Z,99.96
2022-11-08T22:26:46.762Z,99.99
2022-11-08T22:29:14.136Z,100.00
2022-11-08T22:31:41.700Z,100.00
2022-11-08T22:34:09.673Z,100.00
2022-11-08T22:36:42.911Z,100.00
2022-11-08T22:39:13.193Z,100.00
2022-11-08T22:41:39.870Z,100.00
2022-11-08T22:44:11.774Z,100.00
2022-11-08T22:46:39.223Z,100.00
2022-11-08T22:49:06.239Z,100.00
2022-11-08T22:51:32.882Z,100.00
2022-11-08T22:54:00.124Z,100.00
2022-11-08T22:56:27.743Z,100.00
2022-11-08T22:58:54.642Z,100.00
2022-11-08T23:01:21.624Z,100.00
2022-11-08T23:03:48.417Z,100.00
2022-11-08T23:06:16.083Z,100.00
2022-11-08T23:08:43.394Z,100.00
2022-11-08T23:11:29.844Z,100.00
2022-11-08T23:14:15.181Z,100.00
2022-11-08T23:16:43.834Z,100.00
2022-11-08T23:19:37.724Z,100.00
2022-11-08T23:22:24.884Z,100.00
2022-11-08T23:24:51.717Z,100.00
2022-11-08T23:27:38.274Z,100.00
2022-11-08T23:30:25.175Z,100.00
2022-11-08T23:32:52.695Z,100.00
2022-11-08T23:35:20.868Z,100.00
2022-11-08T23:37:47.638Z,100.00
2022-11-08T23:40:34.614Z,100.00
2022-11-08T23:43:34.208Z,100.00
2022-11-08T23:46:09.856Z,100.00
2022-11-08T23:48:39.061Z,100.00
2022-11-08T23:51:07.246Z,100.00
2022-11-08T23:53:37.382Z,100.00
2022-11-08T23:56:05.038Z,100.00
2022-11-08T23:58:32.806Z,100.00
